Flight Track Log - Related Links

Times and Time Zones

All times are in EDT time to prevent confusion due to time zone crossing. See the N156G flight status page for this flight to view local times or setup timezone preferences in your user account.

Time Position Orientation Groundspeed Altitude Reporting Facility
EDT Latitude Longitude Course Direction KTS MPH feet Rate Location/Type
Wed 04:38:05 PM 33.4000 -118.4167 40° Northeast 76 87 1,600  Level Southern California TRACON
Wed 04:40:05 PM 33.3833 -118.4167 180° South 260 299 4,000 1,143 Climbing Southern California TRACON
Wed 04:41:14 PM 33.4086 -118.3864 45° Northeast 140 161 5,200 1,099 Climbing Los Angeles Center
Wed 04:42:16 PM 33.4356 -118.3544 45° Northeast 137 158 6,400 1,306 Climbing Los Angeles Center
Wed 04:43:00 PM 33.5236 -118.2764 40° Northeast  Level FlightAware Approximate
Wed 04:43:18 PM 33.4647 -118.3244 41° Northeast 138 159 7,900  Level Los Angeles Center
Wed 04:44:20 PM 33.5039 -118.2922 34° Northeast 142 163 9,400 1,296 Climbing Los Angeles Center
Wed 04:45:23 PM 33.5361 -118.2633 37° Northeast 144 166 10,600 768 Climbing Los Angeles Center
Wed 04:46:25 PM 33.5719 -118.2342 34° Northeast 149 171 11,000 194 Climbing Los Angeles Center
Wed 04:47:27 PM 33.6036 -118.1928 47° Northeast 169 194 11,000 435 Level Los Angeles Center
Wed 04:48:29 PM 33.6119 -118.1372 80° East 173 199 11,900 968 Climbing Los Angeles Center
Wed 04:49:31 PM 33.6425 -118.0997 46° Northeast 169 194 13,000 581 Climbing Los Angeles Center
Wed 04:50:33 PM 33.6897 -118.0881 12° North 175 201 13,100 677 Climbing Los Angeles Center
Wed 04:51:35 PM 33.7311 -118.0728 17° North 157 181 14,400 919 Climbing Los Angeles Center
Wed 04:52:37 PM 33.7775 -118.0586 14° North 170 196 15,000 290 Climbing Los Angeles Center
Wed 04:53:39 PM 33.7847 -118.0006 81° East 181 208 15,000  Level Los Angeles Center
Wed 04:54:42 PM 33.7769 -117.9342 98° East 169 194 15,000  Level Los Angeles Center
Wed 04:55:43 PM 33.7750 -117.8875 93° East 173 199 15,000 581 Level Los Angeles Center
Wed 04:56:46 PM 33.7703 -117.8153 94° East 180 207 16,200 960 Climbing Los Angeles Center
Wed 04:57:48 PM 33.7700 -117.7672 90° East 152 175 17,000 968 Climbing Los Angeles Center
Wed 04:58:50 PM 33.7672 -117.7144 94° East 155 178 18,200 968 Climbing Los Angeles Center
Wed 04:59:52 PM 33.7650 -117.6619 93° East 157 181 19,000 387 Climbing Los Angeles Center
Wed 05:00:54 PM 33.7628 -117.5925 92° East 170 196 19,000 48 Level Los Angeles Center
Wed 05:01:56 PM 33.7592 -117.5336 94° East 175 201 19,100 629 Climbing Los Angeles Center
Wed 05:02:58 PM 33.7589 -117.4789 90° East 168 193 20,300 912 Climbing Los Angeles Center
Wed 05:04:01 PM 33.7536 -117.4256 97° East 162 186 21,000 307 Climbing Los Angeles Center
Wed 05:05:15 PM 33.7472 -117.3661 97° East 174 200 21,000  Level Los Angeles Center
Wed 05:06:19 PM 33.7433 -117.2861 93° East 172 198 21,000  Level Los Angeles Center
Wed 05:07:19 PM 33.7383 -117.2286 96° East 172 198 21,000  Level Los Angeles Center
Wed 05:08:21 PM 33.7347 -117.1714 94° East 172 198 21,000  Level Los Angeles Center
Wed 05:09:24 PM 33.7292 -117.1136 97° East 175 201 21,000  Level Los Angeles Center
Wed 05:10:26 PM 33.7250 -117.0547 95° East 175 201 21,000  Level Los Angeles Center
Wed 05:11:28 PM 33.7211 -116.9944 94° East 181 208 21,000  Level Los Angeles Center
Wed 05:12:30 PM 33.7178 -116.9222 93° East 181 208 21,000  Level Los Angeles Center
Wed 05:13:32 PM 33.7183 -116.8603 89° East 184 212 21,000 48 Level Los Angeles Center
Wed 05:14:34 PM 33.7108 -116.7947 98° East 188 216 21,100  Climbing Los Angeles Center
Wed 05:15:36 PM 33.6939 -116.7375 110° East 186 214 21,000 -48 Descending Los Angeles Center
Wed 05:16:38 PM 33.6711 -116.6842 117° Southeast 181 208 21,000  Level Los Angeles Center
Wed 05:17:40 PM 33.6600 -116.6253 103° East 184 212 21,000  Level Los Angeles Center
Wed 05:18:43 PM 33.6653 -116.5647 84° East 182 209 21,000  Level Los Angeles Center
Wed 05:19:57 PM 33.6581 -116.4908 97° East 185 213 21,000  Level Los Angeles Center
Wed 05:20:59 PM 33.6500 -116.4175 97° East 185 213 21,000  Level Los Angeles Center
Wed 05:22:13 PM 33.6444 -116.3578 96° East 181 208 21,000  Level Los Angeles Center
Wed 05:23:16 PM 33.6389 -116.2858 95° East 180 207 21,000  Level Los Angeles Center
Wed 05:24:18 PM 33.6331 -116.2272 97° East 178 205 21,000  Level Los Angeles Center
Wed 05:25:20 PM 33.6264 -116.1544 96° East 182 209 21,000  Level Los Angeles Center
Wed 05:26:22 PM 33.6242 -116.0939 93° East 180 207 21,000  Level Los Angeles Center
Wed 05:27:25 PM 33.6244 -116.0331 90° East 183 211 21,000  Level Los Angeles Center
Wed 05:28:27 PM 33.6225 -115.9744 92° East 179 206 21,000  Level Los Angeles Center
Wed 05:29:29 PM 33.6233 -115.9136 89° East 181 208 21,000  Level Los Angeles Center
Wed 05:30:31 PM 33.6219 -115.8528 92° East 181 208 21,000  Level Los Angeles Center
Wed 05:31:33 PM 33.6200 -115.7808 92° East 180 207 21,000  Level Los Angeles Center
Wed 05:32:47 PM 33.6183 -115.7208 92° East 179 206 21,000  Level Los Angeles Center
Wed 05:33:50 PM 33.6161 -115.6469 92° East 183 211 21,000  Level Los Angeles Center
Wed 05:34:52 PM 33.6150 -115.5861 91° East 183 211 21,000  Level Los Angeles Center
Wed 05:35:54 PM 33.6139 -115.5261 91° East 180 207 21,000  Level Los Angeles Center
Wed 05:36:56 PM 33.6125 -115.4656 92° East 181 208 21,000  Level Los Angeles Center
Wed 05:37:59 PM 33.6108 -115.3928 92° East 183 211 21,000  Level Los Angeles Center
Wed 05:39:01 PM 33.6089 -115.3306 92° East 186 214 21,000  Level Los Angeles Center
Wed 05:40:03 PM 33.6083 -115.2706 91° East 182 209 21,000  Level Los Angeles Center
Wed 05:41:05 PM 33.6072 -115.2094 91° East 183 211 21,000  Level Los Angeles Center
Wed 05:42:07 PM 33.6058 -115.1478 92° East 183 211 21,000  Level Los Angeles Center
Wed 05:43:09 PM 33.6025 -115.0881 94° East 180 207 21,000  Level Los Angeles Center
Wed 05:44:11 PM 33.6017 -115.0139 91° East 183 211 21,000  Level Los Angeles Center
Wed 05:45:14 PM 33.5994 -114.9528 92° East 183 211 21,000  Level Los Angeles Center
Wed 05:46:16 PM 33.5983 -114.8908 91° East 186 214 21,000  Level Los Angeles Center
Wed 05:47:18 PM 33.5969 -114.8297 92° East 185 213 21,000  Level Los Angeles Center
Wed 05:48:20 PM 33.5956 -114.7694 92° East 182 209 21,000  Level Los Angeles Center
Wed 05:49:22 PM 33.5906 -114.6961 95° East 183 211 21,000  Level Los Angeles Center
Wed 05:50:24 PM 33.5836 -114.6353 98° East 185 213 21,000  Level Los Angeles Center
Wed 05:51:26 PM 33.5789 -114.5769 96° East 177 204 21,000  Level Los Angeles Center
Wed 05:52:29 PM 33.5719 -114.5147 98° East 185 213 21,000  Level Los Angeles Center
Wed 05:53:31 PM 33.5678 -114.4578 95° East 173 199 21,000  Level Los Angeles Center
Wed 05:54:33 PM 33.5611 -114.3972 98° East 181 208 21,000  Level Los Angeles Center
Wed 05:55:04 PM 33.5625 -114.3642 87° East 177 204 21,000 -65 Level Albuquerque Center
Wed 05:56:05 PM 33.5589 -114.2992 94° East 177 204 20,900  Descending Albuquerque Center
Wed 05:57:07 PM 33.5508 -114.2458 100° East 179 206 21,000 -339 Climbing Albuquerque Center
Wed 05:58:09 PM 33.5447 -114.1733 96° East 180 207 20,200 -829 Descending Albuquerque Center
Wed 05:59:10 PM 33.5397 -114.1131 96° East 182 209 19,300 -976 Descending Albuquerque Center
Wed 06:00:12 PM 33.5361 -114.0550 94° East 178 205 18,200 -1,065 Descending Albuquerque Center
Wed 06:01:14 PM 33.5319 -113.9903 94° East 178 205 17,100 -581 Descending Albuquerque Center
Wed 06:02:16 PM 33.5278 -113.9369 95° East 178 205 17,000  Descending Albuquerque Center
Wed 06:03:17 PM 33.5311 -113.8789 86° East 176 203 17,100 49 Climbing Albuquerque Center
Wed 06:04:19 PM 33.5367 -113.8186 84° East 179 206 17,100 -48 Level Albuquerque Center
Wed 06:05:21 PM 33.5425 -113.7475 84° East 180 207 17,000 -49 Descending Albuquerque Center
Wed 06:06:22 PM 33.5497 -113.6900 81° East 177 204 17,000 -98 Level Albuquerque Center
Wed 06:07:24 PM 33.5542 -113.6319 85° East 175 201 16,800 -532 Descending Albuquerque Center
Wed 06:08:26 PM 33.5606 -113.5731 83° East 176 203 15,900 -871 Descending Albuquerque Center
Wed 06:09:28 PM 33.5672 -113.5172 82° East 172 198 15,000 -829 Descending Albuquerque Center
Wed 06:10:29 PM 33.5714 -113.4619 85° East 168 193 14,200 -829 Descending Albuquerque Center
Wed 06:11:31 PM 33.5758 -113.4089 84° East 163 188 13,300 -871 Descending Albuquerque Center
Wed 06:12:33 PM 33.5836 -113.3542 80° East 164 189 12,400 -878 Descending Albuquerque Center
Wed 06:13:34 PM 33.5903 -113.2928 83° East 158 182 11,500 -634 Descending Albuquerque Center
Wed 06:14:36 PM 33.5961 -113.2419 82° East 156 180 11,100 -242 Descending Albuquerque Center
Wed 06:15:38 PM 33.5997 -113.1881 85° East 159 183 11,000 -49 Descending Albuquerque Center
Wed 06:16:39 PM 33.6039 -113.1344 85° East 160 184 11,000 46 Level Albuquerque Center
Wed 06:17:49 PM 33.6078 -113.0733 86° East 159 183 11,100 -339 Climbing Albuquerque Center
Wed 06:18:43 PM 33.6181 -113.0322 73° East 158 182 10,300 -983 Descending Albuquerque Center
Wed 06:19:45 PM 33.6381 -112.9769 66° East 164 189 9,200 -1,086 Descending Albuquerque Center
Wed 06:20:39 PM 33.6525 -112.9247 72° East 173 199 8,200 -991 Descending Albuquerque Center
Wed 06:21:40 PM 33.6669 -112.8728 72° East 169 194 7,300 -891 Descending Albuquerque Center
Wed 06:22:47 PM 33.6792 -112.8086 77° East 176 203 6,300 -567 Descending Albuquerque Center
Wed 06:23:47 PM 33.6950 -112.7536 71° East 177 204 6,100 -149 Descending Albuquerque Center
Wed 06:24:48 PM 33.7111 -112.6986 71° East 173 199 6,000  Descending Albuquerque Center
Wed 06:25:42 PM 33.7300 -112.6478 66° East 176 203 6,100  Climbing Albuquerque Center
Wed 06:26:49 PM 33.7497 -112.5792 71° East 207 238 6,000  Descending Albuquerque Center
Wed 06:27:59 PM 33.7669 -112.5192 71° East 185 213 6,100 45 Climbing Albuquerque Center
Wed 06:29:01 PM 33.7781 -112.4625 77° East 178 205 6,100  Level Albuquerque Center
Wed 06:30:03 PM 33.7797 -112.3892 88° East 182 209 6,100  Level Albuquerque Center
Wed 06:31:04 PM 33.7783 -112.3311 92° East 177 204 6,100 -293 Level Albuquerque Center
Wed 06:32:06 PM 33.7711 -112.2744 99° East 172 198 5,500 -871 Descending Albuquerque Center
Wed 06:33:08 PM 33.7525 -112.2181 112° Southeast 181 208 4,300 -919 Descending Albuquerque Center
Wed 06:34:10 PM 33.7372 -112.1675 110° East 165 190 3,600 -581 Descending Albuquerque Center
Wed 06:35:12 PM 33.7217 -112.1289 116° Southeast 134 154 3,100 -293 Descending Albuquerque Center
Wed 06:36:13 PM 33.7175 -112.0858 97° East 136 157 3,000 -146 Descending Albuquerque Center
Wed 06:37:15 PM 33.7164 -112.0333 91° East 133 153 2,800 -194 Descending Albuquerque Center
Wed 06:38:17 PM 33.6897 -112.0244 164° South 139 160 2,600 -290 Descending Albuquerque Center
Wed 06:39:19 PM 33.6936 -112.0564 278° West 122 140 2,200 -387 Descending Albuquerque Center

Login

Don't have an account? Register now (free) for customized features, flight alerts, and more!